createdAt,value
2022-09-23T00:01:05.270Z,74.85
2022-09-23T00:03:33.329Z,74.74
2022-09-23T00:06:01.602Z,74.66
2022-09-23T00:08:29.364Z,74.47
2022-09-23T00:10:56.824Z,74.42
2022-09-23T00:13:24.995Z,74.49
2022-09-23T00:15:52.276Z,74.56
2022-09-23T00:18:20.931Z,74.76
2022-09-23T00:20:49.313Z,74.72
2022-09-23T00:23:16.361Z,74.77
2022-09-23T00:25:43.357Z,74.93
2022-09-23T00:28:10.451Z,75.00
2022-09-23T00:30:37.543Z,75.09
2022-09-23T00:33:04.546Z,75.25
2022-09-23T00:35:31.592Z,75.29
2022-09-23T00:37:58.666Z,75.43
2022-09-23T00:40:26.434Z,75.37
2022-09-23T00:42:53.658Z,75.46
2022-09-23T00:45:20.807Z,75.64
2022-09-23T00:47:51.297Z,75.92
2022-09-23T00:50:38.452Z,75.96
2022-09-23T00:53:10.703Z,75.99
2022-09-23T00:55:55.484Z,75.93
2022-09-23T00:58:26.929Z,75.82
2022-09-23T01:00:54.779Z,75.82
2022-09-23T01:03:23.281Z,75.78
2022-09-23T01:05:50.330Z,75.64
2022-09-23T01:08:19.835Z,75.47
2022-09-23T01:11:06.387Z,75.24
2022-09-23T01:13:44.461Z,75.29
2022-09-23T01:16:32.879Z,75.27
2022-09-23T01:19:23.903Z,75.31
2022-09-23T01:22:05.285Z,75.43
2022-09-23T01:25:08.841Z,75.29
2022-09-23T01:27:48.019Z,74.98
2022-09-23T01:30:44.917Z,75.07
2022-09-23T01:33:24.610Z,74.93
2022-09-23T01:36:34.160Z,74.96
2022-09-23T01:39:09.498Z,74.79
2022-09-23T01:42:17.827Z,74.71
2022-09-23T01:44:50.978Z,74.55
2022-09-23T01:47:19.581Z,74.45
2022-09-23T01:50:03.835Z,74.47
2022-09-23T01:52:33.082Z,74.50
2022-09-23T01:55:28.236Z,74.53
2022-09-23T01:58:15.152Z,74.49
2022-09-23T02:00:49.337Z,74.26
2022-09-23T02:03:27.942Z,74.32
2022-09-23T02:09:39.083Z,74.40
2022-09-23T02:16:13.792Z,74.20
2022-09-23T02:19:02.696Z,74.02
2022-09-23T02:21:35.018Z,74.05
2022-09-23T02:24:15.441Z,74.05
2022-09-23T02:27:01.856Z,74.00
2022-09-23T02:29:36.985Z,74.11
2022-09-23T02:32:13.030Z,74.11
2022-09-23T02:34:42.743Z,74.02
2022-09-23T02:37:36.108Z,74.04
2022-09-23T02:40:18.571Z,73.95
2022-09-23T02:43:07.069Z,74.04
2022-09-23T02:45:34.286Z,73.99
2022-09-23T02:48:07.407Z,74.01
2022-09-23T02:50:34.555Z,73.90
2022-09-23T02:53:01.705Z,73.94
2022-09-23T02:55:32.647Z,74.18
2022-09-23T02:58:03.584Z,74.02
2022-09-23T03:00:58.980Z,74.29
2022-09-23T03:03:38.840Z,74.17
2022-09-23T03:06:15.418Z,74.15
2022-09-23T03:09:08.473Z,74.30
2022-09-23T03:11:37.154Z,74.42
2022-09-23T03:14:25.806Z,74.52
2022-09-23T03:17:03.787Z,74.46
2022-09-23T03:19:49.086Z,74.50
2022-09-23T03:22:46.445Z,74.72
2022-09-23T03:25:16.260Z,74.81
2022-09-23T03:27:43.813Z,75.02
2022-09-23T03:30:11.486Z,75.18
2022-09-23T03:32:38.931Z,75.22
2022-09-23T03:35:06.598Z,75.14
2022-09-23T03:37:40.500Z,74.88
2022-09-23T03:40:12.585Z,74.84
2022-09-23T03:42:39.720Z,74.87
2022-09-23T03:45:09.829Z,74.84
2022-09-23T03:47:39.757Z,75.05
2022-09-23T03:50:07.638Z,75.14
2022-09-23T03:52:34.666Z,75.15
2022-09-23T03:55:01.724Z,75.07
2022-09-23T03:57:28.819Z,75.10
2022-09-23T03:59:55.810Z,75.13
2022-09-23T04:02:22.930Z,75.25
2022-09-23T04:04:50.309Z,75.42
2022-09-23T04:07:17.562Z,75.35
2022-09-23T04:09:44.710Z,75.30
2022-09-23T04:12:13.413Z,75.20
2022-09-23T04:14:40.908Z,75.26
2022-09-23T04:17:08.410Z,75.30
2022-09-23T04:19:35.500Z,75.44
2022-09-23T04:22:02.515Z,75.25
2022-09-23T04:24:29.684Z,75.12
2022-09-23T04:26:56.907Z,75.04
2022-09-23T04:29:24.571Z,75.19
2022-09-23T04:31:56.611Z,75.17
2022-09-23T04:34:23.890Z,75.23
2022-09-23T04:36:51.144Z,75.28
2022-09-23T04:39:18.504Z,75.24
2022-09-23T04:41:45.946Z,75.18
2022-09-23T04:44:13.710Z,75.30
2022-09-23T04:46:47.541Z,75.30
2022-09-23T04:49:15.796Z,75.14
2022-09-23T04:51:43.904Z,75.28
2022-09-23T04:54:11.983Z,75.40
2022-09-23T04:56:40.026Z,75.47
2022-09-23T04:59:07.752Z,75.51
2022-09-23T05:01:36.658Z,75.52
2022-09-23T05:04:06.161Z,75.55
2022-09-23T05:06:34.706Z,75.29
2022-09-23T05:09:02.151Z,75.13
2022-09-23T05:11:30.174Z,75.08
2022-09-23T05:13:57.450Z,74.85
2022-09-23T05:16:24.860Z,74.52
2022-09-23T05:18:52.849Z,74.39
2022-09-23T05:21:24.004Z,74.25
2022-09-23T05:23:54.387Z,74.15
2022-09-23T05:26:22.493Z,73.96
2022-09-23T05:28:49.450Z,73.91
2022-09-23T05:31:20.332Z,73.63
2022-09-23T05:33:52.270Z,73.27
2022-09-23T05:36:21.438Z,73.05
2022-09-23T05:38:50.197Z,72.98
2022-09-23T05:41:18.403Z,72.82
2022-09-23T05:43:45.545Z,72.80
2022-09-23T05:46:13.586Z,72.66
2022-09-23T05:48:41.318Z,72.11
2022-09-23T05:51:13.052Z,71.91
2022-09-23T05:53:40.796Z,71.81
2022-09-23T05:56:08.204Z,71.80
2022-09-23T05:58:35.812Z,71.49
2022-09-23T06:01:09.719Z,71.37
2022-09-23T06:03:36.876Z,71.38
2022-09-23T06:06:04.018Z,71.24
2022-09-23T06:08:32.190Z,70.72
2022-09-23T06:10:59.377Z,70.47
2022-09-23T06:13:32.753Z,70.14
2022-09-23T06:16:00.132Z,69.95
2022-09-23T06:18:27.475Z,69.84
2022-09-23T06:20:54.495Z,69.86
2022-09-23T06:23:25.437Z,69.79
2022-09-23T06:25:54.526Z,69.57
2022-09-23T06:28:21.830Z,69.33
2022-09-23T06:30:49.663Z,69.21
2022-09-23T06:33:19.643Z,69.10
2022-09-23T06:35:59.906Z,68.99
2022-09-23T06:38:27.375Z,69.20
2022-09-23T06:40:55.853Z,69.14
2022-09-23T06:43:23.548Z,69.13
2022-09-23T06:45:57.465Z,68.87
2022-09-23T06:48:25.085Z,68.42
2022-09-23T06:50:53.973Z,68.31
2022-09-23T06:53:24.253Z,68.20
2022-09-23T06:56:11.605Z,67.91
2022-09-23T06:58:39.206Z,67.70
2022-09-23T07:01:11.361Z,67.85
2022-09-23T07:03:38.533Z,67.73
2022-09-23T07:06:06.188Z,67.49
2022-09-23T07:08:36.072Z,67.12
2022-09-23T07:11:07.349Z,66.89
2022-09-23T07:13:34.496Z,66.73
2022-09-23T07:16:02.397Z,66.46
2022-09-23T07:18:36.227Z,65.75
2022-09-23T07:21:15.703Z,65.36
2022-09-23T07:23:50.278Z,65.59
2022-09-23T07:26:18.271Z,65.30
2022-09-23T07:28:45.845Z,65.08
2022-09-23T07:31:23.861Z,64.93
2022-09-23T07:34:01.469Z,64.76
2022-09-23T07:36:29.927Z,64.75
2022-09-23T07:39:02.589Z,64.51
2022-09-23T07:41:36.498Z,64.59
2022-09-23T07:44:03.750Z,64.70
2022-09-23T07:46:32.972Z,64.56
2022-09-23T07:49:00.523Z,64.31
2022-09-23T07:51:34.772Z,64.29
2022-09-23T07:54:03.022Z,64.24
2022-09-23T07:56:30.378Z,64.11
2022-09-23T07:59:00.590Z,64.27
2022-09-23T08:01:36.049Z,63.40
2022-09-23T08:04:07.082Z,63.12
2022-09-23T08:06:34.235Z,62.67
2022-09-23T08:09:01.787Z,62.40
2022-09-23T08:11:28.959Z,62.48
2022-09-23T08:13:56.603Z,62.13
2022-09-23T08:16:23.818Z,62.05
2022-09-23T08:18:51.132Z,61.68
2022-09-23T08:21:20.324Z,61.73
2022-09-23T08:23:49.075Z,62.20
2022-09-23T08:26:21.550Z,62.40
2022-09-23T08:28:55.270Z,62.41
2022-09-23T08:31:22.936Z,62.84
2022-09-23T08:33:59.466Z,63.03
2022-09-23T08:36:27.266Z,63.08
2022-09-23T08:38:55.440Z,63.17
2022-09-23T08:41:59.229Z,62.89
2022-09-23T08:44:37.867Z,62.27
2022-09-23T08:47:24.059Z,61.73
2022-09-23T08:49:56.537Z,61.57
2022-09-23T08:52:33.824Z,61.59
2022-09-23T08:55:02.244Z,61.76
2022-09-23T08:57:39.096Z,61.13
2022-09-23T09:00:06.974Z,60.92
2022-09-23T09:02:34.869Z,61.50
2022-09-23T09:05:06.280Z,61.92
2022-09-23T09:07:37.419Z,61.54
2022-09-23T09:10:15.426Z,59.76
2022-09-23T09:12:51.086Z,58.66
2022-09-23T09:15:24.699Z,57.57
2022-09-23T09:17:59.504Z,56.69
2022-09-23T09:20:49.221Z,56.64
2022-09-23T09:23:23.036Z,55.72
2022-09-23T09:25:54.746Z,55.50
2022-09-23T09:28:26.786Z,55.32
2022-09-23T09:31:00.526Z,53.52
2022-09-23T09:33:32.475Z,52.17
2022-09-23T09:36:21.027Z,51.98
2022-09-23T09:38:48.007Z,51.26
2022-09-23T09:41:17.950Z,50.45
2022-09-23T09:45:46.283Z,50.16
2022-09-23T09:48:33.253Z,51.84
2022-09-23T09:51:30.857Z,53.55
2022-09-23T09:54:24.601Z,54.99
2022-09-23T09:56:52.038Z,55.82
2022-09-23T09:59:24.914Z,56.80
2022-09-23T10:02:12.644Z,58.34
2022-09-23T10:04:40.200Z,59.16
2022-09-23T10:07:18.493Z,60.29
2022-09-23T10:10:22.065Z,61.48
2022-09-23T10:13:38.943Z,62.82
2022-09-23T10:16:07.042Z,62.93
2022-09-23T10:18:48.836Z,62.16
2022-09-23T10:21:35.881Z,61.53
2022-09-23T10:27:14.628Z,60.94
2022-09-23T10:29:47.878Z,60.52
2022-09-23T10:32:40.807Z,59.96
2022-09-23T10:35:11.577Z,59.38
2022-09-23T10:37:42.375Z,59.33
2022-09-23T10:40:42.618Z,60.33
2022-09-23T10:43:52.043Z,60.48
2022-09-23T10:46:46.025Z,60.40
2022-09-23T10:50:03.963Z,60.43
2022-09-23T10:52:48.727Z,60.98
2022-09-23T10:55:25.167Z,61.41
2022-09-23T10:58:19.900Z,61.55
2022-09-23T11:01:27.312Z,61.81
2022-09-23T11:04:34.874Z,62.55
2022-09-23T11:07:27.258Z,62.17
2022-09-23T11:10:45.643Z,60.82
2022-09-23T11:13:24.725Z,59.95
2022-09-23T11:16:34.574Z,59.52
2022-09-23T11:19:25.583Z,58.83
2022-09-23T11:22:08.470Z,58.95
2022-09-23T11:25:14.696Z,59.19
2022-09-23T11:28:04.071Z,59.56
2022-09-23T11:30:41.486Z,59.28
2022-09-23T11:33:37.963Z,59.48
2022-09-23T11:36:07.160Z,59.55
2022-09-23T11:38:45.718Z,60.01
2022-09-23T11:41:17.947Z,60.62
2022-09-23T11:43:53.000Z,61.13
2022-09-23T11:46:36.517Z,61.72
2022-09-23T11:49:17.185Z,62.31
2022-09-23T11:51:47.918Z,63.29
2022-09-23T11:54:21.360Z,63.88
2022-09-23T11:56:52.141Z,64.40
2022-09-23T11:59:34.810Z,64.95
2022-09-23T12:02:20.811Z,65.72
2022-09-23T12:04:57.700Z,66.06
2022-09-23T12:07:48.329Z,66.67
2022-09-23T12:10:15.477Z,67.34
2022-09-23T12:12:57.222Z,67.45
2022-09-23T12:15:39.678Z,66.68
2022-09-23T12:18:34.785Z,64.59
2022-09-23T12:21:27.419Z,63.75
2022-09-23T12:24:18.965Z,63.04
2022-09-23T12:26:53.684Z,62.53
2022-09-23T12:29:23.556Z,62.06
2022-09-23T12:31:53.207Z,61.69
2022-09-23T12:34:21.682Z,61.92
2022-09-23T12:36:48.729Z,61.77
2022-09-23T12:39:26.120Z,62.24
2022-09-23T12:41:58.802Z,62.27
2022-09-23T12:44:33.161Z,61.77
2022-09-23T12:47:25.810Z,61.88
2022-09-23T12:50:02.130Z,61.96
2022-09-23T12:52:33.043Z,61.48
2022-09-23T12:55:27.009Z,61.37
2022-09-23T12:57:55.223Z,61.41
2022-09-23T13:00:29.832Z,61.46
2022-09-23T13:03:21.272Z,61.81
2022-09-23T13:06:11.173Z,61.64
2022-09-23T13:08:39.626Z,61.95
2022-09-23T13:11:39.248Z,62.36
2022-09-23T13:14:27.395Z,61.68
2022-09-23T13:16:57.364Z,60.79
2022-09-23T13:19:28.041Z,59.90
2022-09-23T13:21:55.181Z,60.11
2022-09-23T13:24:25.226Z,59.76
2022-09-23T13:26:57.580Z,58.89
2022-09-23T13:29:28.647Z,58.86
2022-09-23T13:31:58.137Z,58.99
2022-09-23T13:34:27.369Z,59.63
2022-09-23T13:36:54.563Z,59.72
2022-09-23T13:39:25.308Z,59.87
2022-09-23T13:41:53.838Z,60.90
2022-09-23T13:44:21.134Z,61.28
2022-09-23T13:46:51.569Z,61.66
2022-09-23T13:49:26.388Z,62.30
2022-09-23T13:51:54.344Z,62.12
2022-09-23T13:54:54.924Z,62.35
2022-09-23T13:57:34.157Z,61.42
2022-09-23T14:00:21.880Z,60.92
2022-09-23T14:02:49.009Z,61.12
2022-09-23T14:05:27.358Z,61.67
2022-09-23T14:07:54.783Z,62.13
2022-09-23T14:10:29.784Z,62.35
2022-09-23T14:13:01.325Z,62.69
2022-09-23T14:15:28.511Z,63.14
2022-09-23T14:18:02.423Z,63.67
2022-09-23T14:20:29.394Z,64.22
2022-09-23T14:23:07.082Z,64.37
2022-09-23T14:25:34.521Z,65.49
2022-09-23T14:28:01.695Z,65.79
2022-09-23T14:30:29.024Z,65.97
2022-09-23T14:32:56.607Z,65.89
2022-09-23T14:35:29.788Z,66.55
2022-09-23T14:38:16.286Z,67.57
2022-09-23T14:41:14.146Z,68.11
2022-09-23T14:44:07.074Z,68.43
2022-09-23T14:46:36.225Z,69.00
2022-09-23T14:49:13.705Z,69.49
2022-09-23T14:52:07.160Z,69.91
2022-09-23T14:54:40.459Z,70.22
2022-09-23T14:57:23.580Z,70.37
2022-09-23T15:00:13.576Z,70.56
2022-09-23T15:02:45.191Z,70.65
2022-09-23T15:05:15.812Z,70.65
2022-09-23T15:11:15.121Z,71.30
2022-09-23T15:13:44.708Z,71.67
2022-09-23T15:16:28.400Z,71.61
2022-09-23T15:19:28.483Z,71.31
2022-09-23T15:22:18.992Z,70.38
2022-09-23T15:25:17.517Z,69.69
2022-09-23T15:27:56.316Z,69.65
2022-09-23T15:30:23.777Z,69.83
2022-09-23T15:32:51.129Z,69.71
2022-09-23T15:35:20.169Z,69.78
2022-09-23T15:37:54.813Z,69.89
2022-09-23T15:40:30.127Z,70.23
2022-09-23T15:42:58.985Z,69.92
2022-09-23T15:45:40.897Z,69.88
2022-09-23T15:48:18.066Z,69.90
2022-09-23T15:50:48.510Z,70.50
2022-09-23T15:53:28.599Z,70.68
2022-09-23T15:55:59.002Z,70.74
2022-09-23T15:58:40.078Z,70.39
2022-09-23T16:01:07.994Z,70.57
2022-09-23T16:03:35.095Z,70.61
2022-09-23T16:06:03.459Z,70.90
2022-09-23T16:08:33.044Z,71.20
2022-09-23T16:11:00.545Z,71.43
2022-09-23T16:13:27.894Z,71.65
2022-09-23T16:15:55.041Z,71.99
2022-09-23T16:18:22.090Z,72.11
2022-09-23T16:20:49.687Z,72.31
2022-09-23T16:23:34.905Z,72.50
2022-09-23T16:26:24.496Z,72.51
2022-09-23T16:28:53.173Z,72.80
2022-09-23T16:31:20.501Z,72.70
2022-09-23T16:33:48.402Z,72.80
2022-09-23T16:36:21.695Z,72.73
2022-09-23T16:38:53.463Z,73.11
2022-09-23T16:41:20.755Z,73.48
2022-09-23T16:43:51.030Z,73.58
2022-09-23T16:46:18.480Z,73.89
2022-09-23T16:48:52.138Z,73.76
2022-09-23T16:51:21.702Z,73.68
2022-09-23T16:53:52.127Z,73.70
2022-09-23T16:56:25.711Z,73.81
2022-09-23T16:58:55.125Z,73.94
2022-09-23T17:01:45.849Z,74.21
2022-09-23T17:04:13.694Z,74.48
2022-09-23T17:06:44.891Z,74.57
2022-09-23T17:09:12.398Z,74.91
2022-09-23T17:11:42.198Z,75.00
2022-09-23T17:14:10.687Z,75.37
2022-09-23T17:16:37.806Z,75.39
2022-09-23T17:19:11.042Z,75.50
2022-09-23T17:21:43.600Z,75.35
2022-09-23T17:24:14.746Z,75.59
2022-09-23T17:26:41.900Z,75.64
2022-09-23T17:29:09.826Z,75.81
2022-09-23T17:31:46.882Z,75.97
2022-09-23T17:34:14.103Z,75.95
2022-09-23T17:36:47.290Z,75.80
2022-09-23T17:39:14.445Z,75.79
2022-09-23T17:41:43.757Z,75.82
2022-09-23T17:44:16.170Z,75.88
2022-09-23T17:46:49.621Z,75.99
2022-09-23T17:49:27.308Z,76.02
2022-09-23T17:52:07.559Z,75.98
2022-09-23T17:54:40.445Z,75.97
2022-09-23T17:57:07.727Z,76.01
2022-09-23T17:59:34.848Z,76.16
2022-09-23T18:02:01.961Z,76.15
2022-09-23T18:04:41.707Z,76.10
2022-09-23T18:07:10.734Z,75.93
2022-09-23T18:09:37.780Z,75.84
2022-09-23T18:12:04.898Z,75.66
2022-09-23T18:14:32.008Z,75.62
2022-09-23T18:17:04.040Z,75.69
2022-09-23T18:19:30.997Z,75.52
2022-09-23T18:21:58.243Z,75.49
2022-09-23T18:24:32.334Z,75.36
2022-09-23T18:27:00.172Z,75.50
2022-09-23T18:29:27.674Z,75.72
2022-09-23T18:32:00.433Z,75.66
2022-09-23T18:34:32.624Z,75.62
2022-09-23T18:36:59.819Z,75.42
2022-09-23T18:39:29.405Z,75.37
2022-09-23T18:42:05.640Z,75.61
2022-09-23T18:44:34.053Z,75.77
2022-09-23T18:47:01.177Z,75.88
2022-09-23T18:49:46.890Z,75.84
2022-09-23T18:52:24.285Z,75.99
2022-09-23T18:54:55.046Z,76.05
2022-09-23T18:57:54.700Z,76.20
2022-09-23T19:00:21.748Z,76.26
2022-09-23T19:02:54.505Z,76.25
2022-09-23T19:05:22.125Z,76.36
2022-09-23T19:07:49.413Z,76.33
2022-09-23T19:10:56.096Z,76.21
2022-09-23T19:13:37.099Z,76.18
2022-09-23T19:16:10.072Z,76.31
2022-09-23T19:18:38.704Z,76.21
2022-09-23T19:21:10.958Z,76.13
2022-09-23T19:23:38.520Z,75.78
2022-09-23T19:26:10.609Z,75.58
2022-09-23T19:28:37.932Z,75.26
2022-09-23T19:31:22.486Z,75.29
2022-09-23T19:33:57.532Z,75.13
2022-09-23T19:36:32.562Z,75.28
2022-09-23T19:39:03.065Z,74.97
2022-09-23T19:41:32.387Z,74.65
2022-09-23T19:44:03.584Z,74.63
2022-09-23T19:46:31.262Z,74.77
2022-09-23T19:48:58.856Z,74.95
2022-09-23T19:51:26.206Z,74.86
2022-09-23T19:53:53.604Z,74.67
2022-09-23T19:56:20.608Z,74.64
2022-09-23T19:58:51.350Z,74.64
2022-09-23T20:01:18.667Z,74.50
2022-09-23T20:03:47.199Z,74.58
2022-09-23T20:06:15.147Z,74.81
2022-09-23T20:08:42.295Z,74.96
2022-09-23T20:11:27.653Z,74.98
2022-09-23T20:14:06.546Z,75.29
2022-09-23T20:16:37.397Z,75.20
2022-09-23T20:19:05.785Z,75.23
2022-09-23T20:21:33.957Z,75.31
2022-09-23T20:24:01.632Z,75.38
2022-09-23T20:26:47.642Z,75.27
2022-09-23T20:29:14.688Z,75.15
2022-09-23T20:31:41.923Z,74.85
2022-09-23T20:34:10.727Z,74.71
2022-09-23T20:36:39.370Z,74.79
2022-09-23T20:39:06.659Z,74.69
2022-09-23T20:41:37.440Z,74.70
2022-09-23T20:47:14.208Z,74.54
2022-09-23T20:49:43.785Z,74.29
2022-09-23T20:52:15.459Z,74.30
2022-09-23T20:54:42.827Z,74.33
2022-09-23T20:57:14.310Z,74.61
2022-09-23T20:59:41.406Z,74.64
2022-09-23T21:02:08.638Z,74.83
2022-09-23T21:04:35.808Z,75.06
2022-09-23T21:07:05.828Z,75.17
2022-09-23T21:09:32.901Z,75.31
2022-09-23T21:11:59.925Z,75.53
2022-09-23T21:14:26.986Z,75.68
2022-09-23T21:16:55.250Z,75.75
2022-09-23T21:19:23.018Z,75.80
2022-09-23T21:21:50.155Z,75.72
2022-09-23T21:24:45.688Z,75.73
2022-09-23T21:27:04.756Z,75.83
2022-09-23T21:29:31.775Z,76.00
2022-09-23T21:31:58.785Z,76.04
2022-09-23T21:34:28.434Z,76.11
2022-09-23T21:36:55.631Z,76.05
2022-09-23T21:39:24.997Z,76.09
2022-09-23T21:41:54.593Z,76.19
2022-09-23T21:44:21.740Z,76.29
2022-09-23T21:46:49.051Z,76.37
2022-09-23T21:49:16.162Z,76.59
2022-09-23T21:51:43.201Z,76.47
2022-09-23T21:54:15.851Z,76.41
2022-09-23T21:56:48.105Z,76.47
2022-09-23T21:59:15.184Z,76.62
2022-09-23T22:02:40.224Z,76.89
2022-09-23T22:05:07.851Z,77.14
2022-09-23T22:07:40.732Z,76.98
2022-09-23T22:10:08.418Z,77.02
2022-09-23T22:12:35.647Z,77.13
2022-09-23T22:15:02.696Z,77.18
2022-09-23T22:17:31.177Z,77.33
2022-09-23T22:19:58.835Z,77.37
2022-09-23T22:22:25.818Z,77.40
2022-09-23T22:24:52.834Z,77.35
2022-09-23T22:27:20.516Z,77.28
2022-09-23T22:30:06.708Z,77.31
2022-09-23T22:32:43.799Z,77.47
2022-09-23T22:35:12.400Z,77.56
2022-09-23T22:37:39.502Z,77.48
2022-09-23T22:40:08.493Z,77.35
2022-09-23T22:42:36.770Z,77.30
2022-09-23T22:45:06.034Z,77.26
2022-09-23T22:47:39.768Z,77.30
2022-09-23T22:50:08.560Z,77.24
2022-09-23T22:52:35.819Z,77.06
2022-09-23T22:55:03.986Z,76.47
2022-09-23T22:57:31.649Z,75.99
2022-09-23T22:59:58.803Z,75.86
2022-09-23T23:02:25.947Z,75.83
2022-09-23T23:04:53.573Z,75.64
2022-09-23T23:07:21.618Z,75.70
2022-09-23T23:09:52.519Z,75.63
2022-09-23T23:12:20.549Z,75.50
2022-09-23T23:14:48.594Z,75.50
2022-09-23T23:17:15.704Z,75.50
2022-09-23T23:19:42.751Z,75.58
2022-09-23T23:22:09.796Z,75.47
2022-09-23T23:24:36.768Z,75.45
2022-09-23T23:27:03.995Z,75.18
2022-09-23T23:29:31.142Z,75.04
2022-09-23T23:31:58.118Z,75.13
2022-09-23T23:34:25.455Z,75.13
2022-09-23T23:36:55.259Z,75.01
2022-09-23T23:39:26.375Z,75.07
2022-09-23T23:41:55.186Z,75.26
2022-09-23T23:44:24.027Z,75.19
2022-09-23T23:46:51.404Z,75.05
2022-09-23T23:49:23.446Z,75.05
2022-09-23T23:51:50.659Z,75.07
2022-09-23T23:54:17.815Z,75.31
2022-09-23T23:56:44.955Z,75.30
2022-09-23T23:59:12.241Z,75.29
